createdAt,value
2024-04-07T00:00:37.714Z,100041.38
2024-04-07T00:03:49.398Z,100040.73
2024-04-07T00:06:19.928Z,100037.55
2024-04-07T00:08:51.375Z,100041.73
2024-04-07T00:11:21.904Z,100045.88
2024-04-07T00:13:53.865Z,100042.55
2024-04-07T00:16:24.497Z,100037.89
2024-04-07T00:18:55.947Z,100035.45
2024-04-07T00:21:28.527Z,100035.23
2024-04-07T00:24:01.710Z,100040.85
2024-04-07T00:26:32.455Z,100040.88
2024-04-07T00:29:04.012Z,100038.85
2024-04-07T00:31:34.443Z,100041.11
2024-04-07T00:34:06.086Z,100040.71
2024-04-07T00:36:36.513Z,100043.48
2024-04-07T00:39:09.394Z,100039.43
2024-04-07T00:41:39.617Z,100037.88
2024-04-07T00:44:11.489Z,100036.88
2024-04-07T00:46:42.650Z,100035.04
2024-04-07T00:49:14.688Z,100035.93
2024-04-07T00:51:45.114Z,100036.55
2024-04-07T00:54:16.865Z,100035.84
2024-04-07T00:56:47.191Z,100038.67
2024-04-07T00:59:19.261Z,100033.40
2024-04-07T01:01:49.606Z,100036.02
2024-04-07T01:04:21.238Z,100042.64
2024-04-07T01:06:52.075Z,100049.22
2024-04-07T01:09:25.877Z,100053.77
2024-04-07T01:11:56.413Z,100053.61
2024-04-07T01:14:28.064Z,100059.27
2024-04-07T01:16:58.585Z,100058.31
2024-04-07T01:19:30.245Z,100057.80
2024-04-07T01:22:01.021Z,100051.86
2024-04-07T01:24:32.736Z,100047.72
2024-04-07T01:27:03.367Z,100044.14
2024-04-07T01:29:35.025Z,100040.65
2024-04-07T01:32:05.664Z,100041.02
2024-04-07T01:34:37.618Z,100042.89
2024-04-07T01:37:07.845Z,100042.47
2024-04-07T01:39:39.692Z,100036.49
2024-04-07T01:42:09.813Z,100028.77
2024-04-07T01:44:41.467Z,100023.42
2024-04-07T01:47:11.798Z,100025.23
2024-04-07T01:49:43.967Z,100020.21
2024-04-07T01:52:14.287Z,100020.89
2024-04-07T01:54:46.245Z,100019.27
2024-04-07T01:57:16.676Z,100019.11
2024-04-07T01:59:48.529Z,100017.19
2024-04-07T02:02:20.825Z,100018.52
2024-04-07T02:04:52.969Z,100022.20
2024-04-07T02:07:24.213Z,100025.17
2024-04-07T02:09:55.777Z,100025.27
2024-04-07T02:12:26.199Z,100026.26
2024-04-07T02:14:57.849Z,100027.95
2024-04-07T02:17:28.475Z,100031.40
2024-04-07T02:20:00.398Z,100031.75
2024-04-07T02:22:30.764Z,100033.23
2024-04-07T02:25:02.417Z,100035.00
2024-04-07T02:27:32.845Z,100034.77
2024-04-07T02:30:05.843Z,100036.05
2024-04-07T02:32:36.364Z,100030.83
2024-04-07T02:35:08.058Z,100031.40
2024-04-07T02:37:38.548Z,100031.91
2024-04-07T02:40:10.674Z,100031.66
2024-04-07T02:42:40.799Z,100031.21
2024-04-07T02:45:30.918Z,100028.91
2024-04-07T02:48:05.759Z,100023.60
2024-04-07T02:50:38.936Z,100027.48
2024-04-07T02:53:09.566Z,100025.13
2024-04-07T02:55:41.347Z,100024.21
2024-04-07T02:58:11.851Z,100025.23
2024-04-07T03:00:44.020Z,100028.46
2024-04-07T03:03:14.451Z,100022.73
2024-04-07T03:05:46.041Z,100023.45
2024-04-07T03:08:16.638Z,100021.70
2024-04-07T03:10:58.732Z,100016.75
2024-04-07T03:13:30.184Z,100019.30
2024-04-07T03:16:00.911Z,100018.02
2024-04-07T03:18:32.365Z,100016.52
2024-04-07T03:21:04.134Z,100016.30
2024-04-07T03:23:35.574Z,100017.31
2024-04-07T03:26:06.207Z,100018.89
2024-04-07T03:28:37.667Z,100019.25
2024-04-07T03:31:08.185Z,100016.62
2024-04-07T03:33:40.360Z,100014.55
2024-04-07T03:36:10.773Z,100007.41
2024-04-07T03:38:42.440Z,100001.77
2024-04-07T03:41:12.961Z,100007.80
2024-04-07T03:43:44.525Z,100005.69
2024-04-07T03:46:16.298Z,100007.08
2024-04-07T03:48:47.724Z,100004.10
2024-04-07T03:51:18.252Z,100004.25
2024-04-07T03:53:49.699Z,100004.93
2024-04-07T03:56:22.584Z,100003.25
2024-04-07T03:58:54.276Z,99996.79
2024-04-07T04:01:25.175Z,99995.88
2024-04-07T04:03:56.736Z,100000.79
2024-04-07T04:06:29.716Z,100001.48
2024-04-07T04:09:01.903Z,100004.47
2024-04-07T04:11:32.306Z,100005.73
2024-04-07T04:14:04.168Z,100006.16
2024-04-07T04:16:34.600Z,100013.20
2024-04-07T04:19:06.151Z,100016.92
2024-04-07T04:21:36.882Z,100016.66
2024-04-07T04:24:08.639Z,100023.44
2024-04-07T04:26:39.067Z,100021.85
2024-04-07T04:29:14.425Z,100025.98
2024-04-07T04:31:46.095Z,100024.84
2024-04-07T04:34:16.791Z,100024.74
2024-04-07T04:36:50.129Z,100022.55
2024-04-07T04:39:20.830Z,100028.63
2024-04-07T04:41:52.370Z,100032.90
2024-04-07T04:44:22.907Z,100036.42
2024-04-07T04:46:54.391Z,100032.08
2024-04-07T04:49:24.778Z,100027.02
2024-04-07T04:51:56.329Z,100028.36
2024-04-07T04:54:27.685Z,100027.77
2024-04-07T04:56:59.130Z,100031.90
2024-04-07T04:59:30.069Z,100029.23
2024-04-07T05:02:01.625Z,100028.02
2024-04-07T05:04:32.575Z,100029.39
2024-04-07T05:07:05.814Z,100028.58
2024-04-07T05:09:36.588Z,100025.73
2024-04-07T05:12:08.646Z,100028.05
2024-04-07T05:14:39.075Z,100023.45
2024-04-07T05:17:11.241Z,100019.98
2024-04-07T05:19:41.672Z,100020.23
2024-04-07T05:22:13.231Z,100021.06
2024-04-07T05:24:44.162Z,100023.20
2024-04-07T05:27:15.813Z,100018.96
2024-04-07T05:29:49.637Z,100018.52
2024-04-07T05:32:21.077Z,100022.02
2024-04-07T05:34:51.516Z,100022.08
2024-04-07T05:37:23.255Z,100023.33
2024-04-07T05:39:54.095Z,100025.11
2024-04-07T05:42:28.814Z,100029.47
2024-04-07T05:45:01.500Z,100031.45
2024-04-07T05:47:31.928Z,100032.67
2024-04-07T05:50:03.783Z,100032.42
2024-04-07T05:52:34.526Z,100036.68
2024-04-07T05:55:06.808Z,100043.02
2024-04-07T05:57:38.051Z,100040.92
2024-04-07T06:00:10.256Z,100045.17
2024-04-07T06:02:45.648Z,100045.02
2024-04-07T06:05:16.171Z,100045.63
2024-04-07T06:07:47.927Z,100047.73
2024-04-07T06:10:18.152Z,100047.23
2024-04-07T06:12:50.260Z,100044.14
2024-04-07T06:15:20.440Z,100047.31
2024-04-07T06:17:52.319Z,100049.91
2024-04-07T06:20:22.619Z,100044.31
2024-04-07T06:22:54.479Z,100043.79
2024-04-07T06:25:24.809Z,100046.30
2024-04-07T06:27:56.666Z,100044.82
2024-04-07T06:30:27.088Z,100039.73
2024-04-07T06:32:58.852Z,100035.05
2024-04-07T06:35:29.581Z,100036.39
2024-04-07T06:38:01.372Z,100039.05
2024-04-07T06:40:31.766Z,100039.39
2024-04-07T06:43:03.948Z,100044.28
2024-04-07T06:45:34.361Z,100047.69
2024-04-07T06:48:06.640Z,100048.43
2024-04-07T06:50:37.056Z,100049.45
2024-04-07T06:53:08.922Z,100046.46
2024-04-07T06:55:39.658Z,100049.23
2024-04-07T06:58:11.309Z,100043.06
2024-04-07T07:00:41.748Z,100046.21
2024-04-07T07:03:13.585Z,100049.22
2024-04-07T07:05:43.914Z,100044.36
2024-04-07T07:08:16.489Z,100039.65
2024-04-07T07:11:01.791Z,100040.88
2024-04-07T07:13:34.659Z,100043.12
2024-04-07T07:16:05.514Z,100041.87
2024-04-07T07:18:37.454Z,100051.29
2024-04-07T07:21:08.294Z,100051.03
2024-04-07T07:23:40.241Z,100058.82
2024-04-07T07:26:10.665Z,100058.83
2024-04-07T07:28:42.438Z,100059.54
2024-04-07T07:31:12.746Z,100058.06
2024-04-07T07:33:44.517Z,100056.52
2024-04-07T07:36:14.938Z,100049.52
2024-04-07T07:38:48.262Z,100051.15
2024-04-07T07:41:21.830Z,100047.26
2024-04-07T07:43:53.397Z,100041.73
2024-04-07T07:46:24.116Z,100035.09
2024-04-07T07:48:56.071Z,100038.90
2024-04-07T07:51:26.505Z,100041.48
2024-04-07T07:53:58.051Z,100043.25
2024-04-07T07:56:28.692Z,100038.86
2024-04-07T07:59:00.277Z,100037.98
2024-04-07T08:01:31.996Z,100039.14
2024-04-07T08:04:04.585Z,100042.06
2024-04-07T08:06:34.997Z,100039.45
2024-04-07T08:09:06.657Z,100040.17
2024-04-07T08:11:37.086Z,100039.55
2024-04-07T08:14:08.533Z,100039.76
2024-04-07T08:16:39.063Z,100037.84
2024-04-07T08:19:10.710Z,100037.81
2024-04-07T08:21:41.349Z,100039.77
2024-04-07T08:24:13.034Z,100033.80
2024-04-07T08:26:43.324Z,100039.27
2024-04-07T08:29:15.390Z,100037.95
2024-04-07T08:31:45.509Z,100040.52
2024-04-07T08:34:17.386Z,100044.05
2024-04-07T08:36:49.951Z,100041.17
2024-04-07T08:39:22.119Z,100038.77
2024-04-07T08:41:52.543Z,100036.75
2024-04-07T08:44:24.667Z,100035.10
2024-04-07T08:46:55.684Z,100026.27
2024-04-07T08:49:28.423Z,100022.97
2024-04-07T08:51:58.749Z,100021.46
2024-04-07T08:54:31.277Z,100020.70
2024-04-07T08:57:03.984Z,100018.30
2024-04-07T08:59:35.667Z,100016.02
2024-04-07T09:02:05.912Z,100014.04
2024-04-07T09:04:37.845Z,100020.27
2024-04-07T09:07:08.373Z,100025.34
2024-04-07T09:09:40.300Z,100030.58
2024-04-07T09:12:11.709Z,100030.02
2024-04-07T09:14:46.516Z,100030.33
2024-04-07T09:17:19.307Z,100031.52
2024-04-07T09:19:49.826Z,100034.33
2024-04-07T09:22:21.476Z,100031.20
2024-04-07T09:24:51.877Z,100024.58
2024-04-07T09:27:23.661Z,100022.55
2024-04-07T09:29:54.292Z,100022.65
2024-04-07T09:32:25.902Z,100025.12
2024-04-07T09:34:56.746Z,100021.75
2024-04-07T09:37:29.100Z,100023.98
2024-04-07T09:39:59.575Z,100025.38
2024-04-07T09:42:32.622Z,100020.02
2024-04-07T09:45:04.118Z,100023.14
2024-04-07T09:47:37.352Z,100022.52
2024-04-07T09:50:10.708Z,100014.41
2024-04-07T09:52:45.402Z,100016.30
2024-04-07T09:55:18.124Z,100009.52
2024-04-07T09:57:48.542Z,100007.25
2024-04-07T10:00:20.513Z,100004.80
2024-04-07T10:02:50.933Z,99999.39
2024-04-07T10:05:22.590Z,100002.92
2024-04-07T10:07:53.634Z,100000.69
2024-04-07T10:10:28.451Z,99995.61
2024-04-07T10:13:10.555Z,99990.48
2024-04-07T10:15:42.110Z,99990.89
2024-04-07T10:18:17.038Z,99987.84
2024-04-07T10:20:54.427Z,99983.53
2024-04-07T10:23:29.155Z,99981.30
2024-04-07T10:26:05.585Z,99976.77
2024-04-07T10:28:49.793Z,99972.63
2024-04-07T10:31:27.370Z,99964.84
2024-04-07T10:33:59.228Z,99962.14
2024-04-07T10:36:32.722Z,99959.40
2024-04-07T10:39:04.667Z,99961.98
2024-04-07T10:41:36.566Z,99960.23
2024-04-07T10:44:10.513Z,99960.57
2024-04-07T10:46:40.877Z,99959.66
2024-04-07T10:49:12.744Z,99951.89
2024-04-07T10:51:48.920Z,99946.92
2024-04-07T10:54:20.759Z,99944.86
2024-04-07T10:56:52.687Z,99947.15
2024-04-07T10:59:24.174Z,99946.83
2024-04-07T11:01:54.610Z,99946.66
2024-04-07T11:04:27.698Z,99944.17
2024-04-07T11:06:58.124Z,99950.19
2024-04-07T11:09:29.674Z,99949.97
2024-04-07T11:12:01.349Z,99950.17
2024-04-07T11:14:33.698Z,99948.42
2024-04-07T11:17:06.308Z,99948.86
2024-04-07T11:19:38.026Z,99942.43
2024-04-07T11:22:08.348Z,99942.60
2024-04-07T11:24:40.722Z,99936.73
2024-04-07T11:27:11.154Z,99938.86
2024-04-07T11:29:42.907Z,99935.39
2024-04-07T11:32:15.226Z,99932.23
2024-04-07T11:34:47.972Z,99927.36
2024-04-07T11:37:18.480Z,99923.55
2024-04-07T11:39:57.167Z,99916.77
2024-04-07T11:42:29.273Z,99920.33
2024-04-07T11:44:59.701Z,99913.62
2024-04-07T11:47:31.181Z,99918.23
2024-04-07T11:50:01.741Z,99916.46
2024-04-07T11:52:33.330Z,99914.59
2024-04-07T11:55:04.919Z,99921.09
2024-04-07T11:57:36.436Z,99916.05
2024-04-07T12:00:08.566Z,99919.74
2024-04-07T12:02:46.511Z,99914.58
2024-04-07T12:05:18.006Z,99920.02
2024-04-07T12:07:49.537Z,99917.80
2024-04-07T12:10:20.138Z,99916.59
2024-04-07T12:12:51.898Z,99912.61
2024-04-07T12:15:22.549Z,99912.38
2024-04-07T12:17:54.593Z,99915.02
2024-04-07T12:20:25.223Z,99904.19
2024-04-07T12:22:56.891Z,99899.98
2024-04-07T12:25:28.869Z,99899.15
2024-04-07T12:28:01.256Z,99898.94
2024-04-07T12:30:31.768Z,99901.09
2024-04-07T12:33:05.348Z,99894.53
2024-04-07T12:35:36.046Z,99889.45
2024-04-07T12:38:09.740Z,99888.27
2024-04-07T12:40:40.203Z,99886.12
2024-04-07T12:43:12.244Z,99886.44
2024-04-07T12:45:43.018Z,99882.25
2024-04-07T12:48:20.784Z,99882.64
2024-04-07T12:50:52.365Z,99883.43
2024-04-07T12:53:22.897Z,99883.42
2024-04-07T12:55:54.337Z,99881.70
2024-04-07T12:58:25.081Z,99880.35
2024-04-07T13:00:56.515Z,99877.58
2024-04-07T13:03:27.055Z,99874.38
2024-04-07T13:05:59.618Z,99867.04
2024-04-07T13:08:30.061Z,99870.86
2024-04-07T13:11:02.663Z,99871.64
2024-04-07T13:13:33.591Z,99869.84
2024-04-07T13:16:05.392Z,99872.11
2024-04-07T13:18:36.154Z,99864.21
2024-04-07T13:21:07.815Z,99863.80
2024-04-07T13:23:38.036Z,99862.15
2024-04-07T13:26:10.066Z,99859.84
2024-04-07T13:28:41.056Z,99857.83
2024-04-07T13:31:13.098Z,99855.88
2024-04-07T13:33:43.632Z,99857.94
2024-04-07T13:36:15.284Z,99854.35
2024-04-07T13:38:46.336Z,99856.80
2024-04-07T13:41:17.984Z,99858.89
2024-04-07T13:43:48.622Z,99856.27
2024-04-07T13:46:20.635Z,99861.12
2024-04-07T13:48:50.905Z,99865.05
2024-04-07T13:51:22.656Z,99866.34
2024-04-07T13:53:52.982Z,99871.16
2024-04-07T13:56:24.849Z,99874.08
2024-04-07T13:58:55.164Z,99875.59
2024-04-07T14:01:27.024Z,99875.09
2024-04-07T14:03:57.354Z,99868.80
2024-04-07T14:06:29.309Z,99868.34
2024-04-07T14:08:59.856Z,99860.55
2024-04-07T14:11:32.218Z,99857.81
2024-04-07T14:14:04.646Z,99860.93
2024-04-07T14:16:37.719Z,99865.33
2024-04-07T14:19:07.894Z,99860.30
2024-04-07T14:21:40.205Z,99862.28
2024-04-07T14:24:10.386Z,99854.88
2024-04-07T14:26:42.242Z,99862.98
2024-04-07T14:29:12.525Z,99861.89
2024-04-07T14:31:45.252Z,99862.84
2024-04-07T14:34:15.368Z,99858.19
2024-04-07T14:36:47.738Z,99852.51
2024-04-07T14:39:17.982Z,99849.59
2024-04-07T14:41:50.516Z,99846.19
2024-04-07T14:44:21.306Z,99850.82
2024-04-07T14:46:53.893Z,99846.52
2024-04-07T14:49:24.380Z,99842.89
2024-04-07T14:51:56.548Z,99837.94
2024-04-07T14:54:27.274Z,99839.52
2024-04-07T14:56:59.140Z,99839.89
2024-04-07T14:59:30.070Z,99836.98
2024-04-07T15:02:01.731Z,99836.02
2024-04-07T15:04:32.458Z,99835.73
2024-04-07T15:07:04.572Z,99834.46
2024-04-07T15:09:36.597Z,99832.71
2024-04-07T15:12:08.563Z,99832.08
2024-04-07T15:14:39.393Z,99832.83
2024-04-07T15:17:12.251Z,99824.02
2024-04-07T15:19:42.702Z,99816.13
2024-04-07T15:22:14.863Z,99823.34
2024-04-07T15:24:47.154Z,99820.13
2024-04-07T15:27:20.606Z,99822.27
2024-04-07T15:29:51.710Z,99826.06
2024-04-07T15:32:23.228Z,99827.08
2024-04-07T15:34:54.063Z,99826.73
2024-04-07T15:37:25.824Z,99826.36
2024-04-07T15:39:56.156Z,99829.42
2024-04-07T15:42:27.594Z,99827.41
2024-04-07T15:44:58.134Z,99824.48
2024-04-07T15:47:29.699Z,99823.58
2024-04-07T15:50:00.227Z,99824.55
2024-04-07T15:52:31.863Z,99820.27
2024-04-07T15:55:02.162Z,99818.64
2024-04-07T15:57:33.741Z,99821.92
2024-04-07T16:00:06.915Z,99815.94
2024-04-07T16:02:38.788Z,99810.58
2024-04-07T16:05:09.525Z,99806.41
2024-04-07T16:07:41.023Z,99800.05
2024-04-07T16:10:11.507Z,99800.64
2024-04-07T16:12:47.805Z,99801.40
2024-04-07T16:15:25.669Z,99798.48
2024-04-07T16:17:56.597Z,99799.89
2024-04-07T16:20:28.261Z,99799.60
2024-04-07T16:22:58.476Z,99798.98
2024-04-07T16:25:31.055Z,99797.35
2024-04-07T16:28:04.356Z,99797.32
2024-04-07T16:30:36.208Z,99803.91
2024-04-07T16:33:07.348Z,99802.61
2024-04-07T16:35:38.963Z,99804.79
2024-04-07T16:38:09.480Z,99804.82
2024-04-07T16:40:41.198Z,99806.20
2024-04-07T16:43:12.741Z,99803.35
2024-04-07T16:45:44.194Z,99806.11
2024-04-07T16:48:16.195Z,99805.86
2024-04-07T16:50:57.849Z,99803.95
2024-04-07T16:53:29.609Z,99810.84
2024-04-07T16:56:00.144Z,99814.59
2024-04-07T16:58:31.881Z,99812.21
2024-04-07T17:01:02.216Z,99810.55
2024-04-07T17:03:33.969Z,99810.48
2024-04-07T17:06:05.110Z,99815.10
2024-04-07T17:08:39.572Z,99815.60
2024-04-07T17:11:12.567Z,99813.03
2024-04-07T17:13:43.154Z,99818.28
2024-04-07T17:16:15.007Z,99817.28
2024-04-07T17:18:45.338Z,99815.36
2024-04-07T17:21:17.104Z,99817.98
2024-04-07T17:23:47.519Z,99813.55
2024-04-07T17:26:19.236Z,99820.50
2024-04-07T17:28:49.704Z,99823.46
2024-04-07T17:31:21.555Z,99823.95
2024-04-07T17:33:53.360Z,99826.58
2024-04-07T17:36:26.199Z,99826.80
2024-04-07T17:38:56.530Z,99829.44
2024-04-07T17:41:28.182Z,99830.00
2024-04-07T17:43:58.403Z,99827.11
2024-04-07T17:46:30.065Z,99826.19
2024-04-07T17:49:00.287Z,99832.46
2024-04-07T17:51:32.252Z,99838.65
2024-04-07T17:54:02.566Z,99844.06
2024-04-07T17:56:34.429Z,99852.55
2024-04-07T17:59:04.657Z,99854.88
2024-04-07T18:01:36.714Z,99855.83
2024-04-07T18:04:06.936Z,99858.95
2024-04-07T18:06:38.692Z,99861.91
2024-04-07T18:09:08.936Z,99863.09
2024-04-07T18:11:40.976Z,99864.22
2024-04-07T18:14:11.437Z,99864.51
2024-04-07T18:16:43.535Z,99869.08
2024-04-07T18:19:14.427Z,99872.50
2024-04-07T18:21:46.065Z,99876.80
2024-04-07T18:24:16.487Z,99874.08
2024-04-07T18:26:48.155Z,99874.81
2024-04-07T18:29:18.718Z,99874.77
2024-04-07T18:31:50.431Z,99874.45
2024-04-07T18:34:20.958Z,99871.05
2024-04-07T18:36:53.152Z,99875.93
2024-04-07T18:39:23.551Z,99875.25
2024-04-07T18:41:55.119Z,99875.73
2024-04-07T18:44:25.611Z,99873.94
2024-04-07T18:46:57.486Z,99876.09
2024-04-07T18:49:28.018Z,99877.34
2024-04-07T18:51:59.673Z,99881.30
2024-04-07T18:54:30.207Z,99882.20
2024-04-07T18:57:01.863Z,99877.73
2024-04-07T18:59:32.074Z,99880.54
2024-04-07T19:02:04.661Z,99885.14
2024-04-07T19:04:35.086Z,99886.19
2024-04-07T19:07:07.191Z,99886.80
2024-04-07T19:09:37.593Z,99889.80
2024-04-07T19:12:09.637Z,99892.84
2024-04-07T19:14:44.369Z,99895.52
2024-04-07T19:17:16.102Z,99894.02
2024-04-07T19:19:47.266Z,99890.95
2024-04-07T19:22:18.994Z,99892.94
2024-04-07T19:24:49.347Z,99891.80
2024-04-07T19:27:21.007Z,99894.73
2024-04-07T19:29:54.819Z,99893.91
2024-04-07T19:32:26.466Z,99889.19
2024-04-07T19:34:57.402Z,99885.04
2024-04-07T19:37:28.849Z,99881.16
2024-04-07T19:40:00.991Z,99878.33
2024-04-07T19:42:35.132Z,99879.60
2024-04-07T19:45:06.586Z,99879.62
2024-04-07T19:47:41.243Z,99878.55
2024-04-07T19:50:14.091Z,99876.70
2024-04-07T19:52:44.517Z,99875.84
2024-04-07T19:55:16.781Z,99875.15
2024-04-07T19:57:47.258Z,99871.05
2024-04-07T20:00:19.442Z,99874.04
2024-04-07T20:02:50.381Z,99873.52
2024-04-07T20:05:22.082Z,99876.41
2024-04-07T20:07:53.388Z,99880.59
2024-04-07T20:10:25.937Z,99879.35
2024-04-07T20:12:58.285Z,99880.64
2024-04-07T20:15:29.820Z,99882.59
2024-04-07T20:18:01.885Z,99883.41
2024-04-07T20:20:33.652Z,99888.36
2024-04-07T20:23:04.337Z,99887.89
2024-04-07T20:25:35.835Z,99888.94
2024-04-07T20:28:06.885Z,99884.16
2024-04-07T20:30:38.425Z,99885.55
2024-04-07T20:33:09.158Z,99885.90
2024-04-07T20:35:40.606Z,99887.48
2024-04-07T20:38:12.250Z,99887.33
2024-04-07T20:40:43.808Z,99882.50
2024-04-07T20:43:14.238Z,99881.67
2024-04-07T20:45:46.202Z,99878.17
2024-04-07T20:48:16.640Z,99879.45
2024-04-07T20:50:48.182Z,99878.67
2024-04-07T20:53:18.783Z,99874.70
2024-04-07T20:55:50.496Z,99880.73
2024-04-07T20:58:20.903Z,99880.86
2024-04-07T21:00:52.370Z,99878.48
2024-04-07T21:03:22.867Z,99880.04
2024-04-07T21:05:54.528Z,99876.08
2024-04-07T21:08:25.393Z,99870.55
2024-04-07T21:10:57.061Z,99866.81
2024-04-07T21:13:27.766Z,99869.41
2024-04-07T21:16:00.228Z,99866.75
2024-04-07T21:18:30.656Z,99867.42
2024-04-07T21:21:02.206Z,99867.48
2024-04-07T21:23:33.593Z,99874.02
2024-04-07T21:26:05.213Z,99877.26
2024-04-07T21:28:38.501Z,99877.70
2024-04-07T21:31:10.050Z,99878.93
2024-04-07T21:33:40.503Z,99878.33
2024-04-07T21:36:12.750Z,99877.02
2024-04-07T21:38:43.183Z,99874.55
2024-04-07T21:41:15.105Z,99867.00
2024-04-07T21:43:45.663Z,99868.32
2024-04-07T21:46:17.328Z,99870.79
2024-04-07T21:48:49.009Z,99872.28
2024-04-07T21:51:20.734Z,99874.46
2024-04-07T21:53:51.363Z,99871.62
2024-04-07T21:56:23.019Z,99870.80
2024-04-07T21:58:53.856Z,99867.89
2024-04-07T22:01:25.708Z,99868.77
2024-04-07T22:03:55.863Z,99872.86
2024-04-07T22:06:27.699Z,99871.95
2024-04-07T22:08:59.352Z,99871.41
2024-04-07T22:11:31.151Z,99871.27
2024-04-07T22:14:01.638Z,99874.38
2024-04-07T22:16:33.301Z,99871.43
2024-04-07T22:19:04.054Z,99870.45
2024-04-07T22:21:35.986Z,99869.41
2024-04-07T22:24:07.232Z,99872.77
2024-04-07T22:26:38.890Z,99873.63
2024-04-07T22:29:09.005Z,99873.39
2024-04-07T22:31:40.867Z,99874.20
2024-04-07T22:34:11.191Z,99873.63
2024-04-07T22:36:43.129Z,99870.72
2024-04-07T22:39:13.386Z,99873.38
2024-04-07T22:41:45.139Z,99867.32
2024-04-07T22:44:15.461Z,99865.98
2024-04-07T22:46:47.212Z,99867.91
2024-04-07T22:49:17.534Z,99865.09
2024-04-07T22:51:49.192Z,99863.16
2024-04-07T22:54:20.544Z,99855.10
2024-04-07T22:56:52.091Z,99852.77
2024-04-07T22:59:22.598Z,99853.54
2024-04-07T23:01:54.272Z,99850.64
2024-04-07T23:04:25.109Z,99848.48
2024-04-07T23:06:57.075Z,99849.36
2024-04-07T23:09:27.504Z,99845.07
2024-04-07T23:11:59.206Z,99844.13
2024-04-07T23:14:29.733Z,99843.17
2024-04-07T23:17:01.442Z,99842.25
2024-04-07T23:19:31.964Z,99847.48
2024-04-07T23:22:03.727Z,99842.83
2024-04-07T23:24:34.155Z,99841.77
2024-04-07T23:27:06.119Z,99840.82
2024-04-07T23:29:36.577Z,99840.60
2024-04-07T23:32:08.400Z,99839.29
2024-04-07T23:34:38.940Z,99832.90
2024-04-07T23:37:10.679Z,99829.72
2024-04-07T23:39:41.522Z,99828.77
2024-04-07T23:42:13.381Z,99827.17
2024-04-07T23:44:44.014Z,99827.86
2024-04-07T23:47:16.073Z,99818.54
2024-04-07T23:49:46.502Z,99817.14
2024-04-07T23:52:18.168Z,99812.87
2024-04-07T23:54:48.585Z,99815.11
2024-04-07T23:57:20.343Z,99811.58
2024-04-07T23:59:50.774Z,99811.85
